sensor_id;sensor_type;location;lat;lon;timestamp;P1;durP1;ratioP1;P2;durP2;ratioP2
9324;SDS011;4701;51.566;6.776;2022-11-20T11:12:07;26.10;;;17.70;;
9324;SDS011;4701;51.566;6.776;2022-11-20T11:14:10;25.13;;;18.43;;
9324;SDS011;4701;51.566;6.776;2022-11-20T11:18:23;24.37;;;17.67;;
9324;SDS011;4701;51.566;6.776;2022-11-20T11:20:26;27.90;;;19.53;;
9324;SDS011;4701;51.566;6.776;2022-11-20T11:22:28;24.77;;;18.67;;
9324;SDS011;4701;51.566;6.776;2022-11-20T11:24:32;25.87;;;18.63;;
9324;SDS011;4701;51.566;6.776;2022-11-20T11:26:33;26.43;;;18.57;;
9324;SDS011;4701;51.566;6.776;2022-11-20T11:28:35;26.33;;;19.80;;
9324;SDS011;4701;51.566;6.776;2022-11-20T11:30:43;24.30;;;19.27;;
9324;SDS011;4701;51.566;6.776;2022-11-20T11:32:46;27.87;;;18.53;;
9324;SDS011;4701;51.566;6.776;2022-11-20T11:34:59;25.03;;;18.97;;
9324;SDS011;4701;51.566;6.776;2022-11-20T11:37:02;27.63;;;19.97;;
9324;SDS011;4701;51.566;6.776;2022-11-20T11:39:05;26.53;;;20.57;;
9324;SDS011;4701;51.566;6.776;2022-11-20T11:41:12;29.10;;;20.50;;
9324;SDS011;4701;51.566;6.776;2022-11-20T11:43:19;31.80;;;20.30;;
9324;SDS011;4701;51.566;6.776;2022-11-20T11:45:48;27.73;;;20.80;;
9324;SDS011;4701;51.566;6.776;2022-11-20T11:47:53;27.67;;;19.20;;
9324;SDS011;4701;51.566;6.776;2022-11-20T11:50:07;26.30;;;19.20;;
9324;SDS011;4701;51.566;6.776;2022-11-20T11:52:17;28.83;;;20.53;;
9324;SDS011;4701;51.566;6.776;2022-11-20T11:54:22;27.23;;;20.43;;
9324;SDS011;4701;51.566;6.776;2022-11-20T11:56:27;31.90;;;20.50;;
9324;SDS011;4701;51.566;6.776;2022-11-20T11:58:34;27.47;;;19.73;;
9324;SDS011;4701;51.566;6.776;2022-11-20T12:00:49;33.43;;;22.13;;
9324;SDS011;4701;51.566;6.776;2022-11-20T12:02:59;29.87;;;20.77;;
9324;SDS011;4701;51.566;6.776;2022-11-20T12:05:10;31.07;;;21.70;;
9324;SDS011;4701;51.566;6.776;2022-11-20T12:07:20;27.67;;;20.97;;
9324;SDS011;4701;51.566;6.776;2022-11-20T12:09:33;30.00;;;20.80;;
9324;SDS011;4701;51.566;6.776;2022-11-20T12:11:41;34.60;;;22.80;;
9324;SDS011;4701;51.566;6.776;2022-11-20T12:13:48;35.60;;;21.60;;
9324;SDS011;4701;51.566;6.776;2022-11-20T12:15:55;34.73;;;22.40;;
9324;SDS011;4701;51.566;6.776;2022-11-20T12:17:56;74.57;;;49.77;;
9324;SDS011;4701;51.566;6.776;2022-11-20T12:19:58;47.03;;;33.00;;
9324;SDS011;4701;51.566;6.776;2022-11-20T12:22:02;32.37;;;23.27;;
9324;SDS011;4701;51.566;6.776;2022-11-20T12:24:18;35.77;;;24.50;;
9324;SDS011;4701;51.566;6.776;2022-11-20T12:26:40;34.10;;;22.70;;
9324;SDS011;4701;51.566;6.776;2022-11-20T12:28:56;30.37;;;21.07;;
9324;SDS011;4701;51.566;6.776;2022-11-20T12:31:11;31.73;;;19.73;;
9324;SDS011;4701;51.566;6.776;2022-11-20T12:36:06;29.93;;;19.77;;
9324;SDS011;4701;51.566;6.776;2022-11-20T12:38:26;26.97;;;18.60;;
9324;SDS011;4701;51.566;6.776;2022-11-20T12:40:41;30.93;;;20.23;;
9324;SDS011;4701;51.566;6.776;2022-11-20T12:42:57;28.87;;;20.20;;
9324;SDS011;4701;51.566;6.776;2022-11-20T12:45:28;27.70;;;18.87;;
9324;SDS011;4701;51.566;6.776;2022-11-20T12:47:46;26.97;;;19.23;;
9324;SDS011;4701;51.566;6.776;2022-11-20T12:50:02;29.23;;;19.53;;
9324;SDS011;4701;51.566;6.776;2022-11-20T12:52:15;28.90;;;19.27;;
9324;SDS011;4701;51.566;6.776;2022-11-20T12:54:46;32.73;;;20.63;;
9324;SDS011;4701;51.566;6.776;2022-11-20T12:57:01;24.93;;;18.87;;
9324;SDS011;4701;51.566;6.776;2022-11-20T12:59:13;43.67;;;28.73;;
9324;SDS011;4701;51.566;6.776;2022-11-20T13:01:29;40.60;;;26.10;;
9324;SDS011;4701;51.566;6.776;2022-11-20T13:03:43;38.33;;;23.00;;
9324;SDS011;4701;51.566;6.776;2022-11-20T13:05:55;31.20;;;19.53;;
9324;SDS011;4701;51.566;6.776;2022-11-20T13:08:07;29.03;;;19.97;;
9324;SDS011;4701;51.566;6.776;2022-11-20T13:10:25;33.40;;;20.70;;
9324;SDS011;4701;51.566;6.776;2022-11-20T13:12:35;29.80;;;19.17;;
9324;SDS011;4701;51.566;6.776;2022-11-20T13:14:46;26.93;;;18.27;;
9324;SDS011;4701;51.566;6.776;2022-11-20T13:16:54;26.23;;;18.53;;
9324;SDS011;4701;51.566;6.776;2022-11-20T13:19:02;30.40;;;18.90;;
9324;SDS011;4701;51.566;6.776;2022-11-20T13:21:13;25.53;;;18.13;;
9324;SDS011;4701;51.566;6.776;2022-11-20T13:25:37;25.83;;;18.03;;
9324;SDS011;4701;51.566;6.776;2022-11-20T13:27:46;26.53;;;17.97;;
9324;SDS011;4701;51.566;6.776;2022-11-20T13:29:58;29.80;;;18.67;;
9324;SDS011;4701;51.566;6.776;2022-11-20T13:32:03;27.07;;;17.67;;
9324;SDS011;4701;51.566;6.776;2022-11-20T13:34:10;25.10;;;16.60;;
9324;SDS011;4701;51.566;6.776;2022-11-20T13:36:20;25.47;;;17.27;;
9324;SDS011;4701;51.566;6.776;2022-11-20T13:38:24;26.80;;;17.13;;
9324;SDS011;4701;51.566;6.776;2022-11-20T13:40:25;27.00;;;18.07;;
9324;SDS011;4701;51.566;6.776;2022-11-20T13:42:28;26.20;;;17.40;;
9324;SDS011;4701;51.566;6.776;2022-11-20T13:44:33;26.70;;;18.53;;
9324;SDS011;4701;51.566;6.776;2022-11-20T13:46:39;24.87;;;17.20;;
9324;SDS011;4701;51.566;6.776;2022-11-20T13:48:44;30.30;;;18.93;;
9324;SDS011;4701;51.566;6.776;2022-11-20T13:50:50;27.60;;;18.13;;
9324;SDS011;4701;51.566;6.776;2022-11-20T13:53:00;27.30;;;17.97;;
9324;SDS011;4701;51.566;6.776;2022-11-20T13:55:11;27.80;;;17.57;;
9324;SDS011;4701;51.566;6.776;2022-11-20T13:57:25;27.63;;;18.57;;
9324;SDS011;4701;51.566;6.776;2022-11-20T13:59:49;27.83;;;18.53;;
9324;SDS011;4701;51.566;6.776;2022-11-20T14:01:57;30.07;;;19.67;;
9324;SDS011;4701;51.566;6.776;2022-11-20T14:03:59;28.87;;;18.67;;
9324;SDS011;4701;51.566;6.776;2022-11-20T14:06:11;26.30;;;18.63;;
9324;SDS011;4701;51.566;6.776;2022-11-20T14:08:18;29.57;;;19.73;;
9324;SDS011;4701;51.566;6.776;2022-11-20T14:10:27;29.47;;;19.90;;
9324;SDS011;4701;51.566;6.776;2022-11-20T14:12:31;31.67;;;21.93;;
9324;SDS011;4701;51.566;6.776;2022-11-20T14:14:35;32.60;;;21.00;;
9324;SDS011;4701;51.566;6.776;2022-11-20T14:16:37;36.40;;;20.93;;
9324;SDS011;4701;51.566;6.776;2022-11-20T14:18:39;31.13;;;20.23;;
9324;SDS011;4701;51.566;6.776;2022-11-20T14:20:40;36.67;;;22.00;;
9324;SDS011;4701;51.566;6.776;2022-11-20T14:22:47;44.67;;;29.50;;
9324;SDS011;4701;51.566;6.776;2022-11-20T14:25:00;47.27;;;31.50;;
9324;SDS011;4701;51.566;6.776;2022-11-20T14:27:04;91.27;;;57.53;;
9324;SDS011;4701;51.566;6.776;2022-11-20T14:29:10;83.77;;;52.30;;
9324;SDS011;4701;51.566;6.776;2022-11-20T14:31:16;51.53;;;31.23;;
9324;SDS011;4701;51.566;6.776;2022-11-20T14:33:25;37.57;;;24.43;;
9324;SDS011;4701;51.566;6.776;2022-11-20T14:35:29;41.57;;;26.70;;
9324;SDS011;4701;51.566;6.776;2022-11-20T14:37:33;39.87;;;23.73;;
9324;SDS011;4701;51.566;6.776;2022-11-20T14:39:40;33.37;;;22.70;;
9324;SDS011;4701;51.566;6.776;2022-11-20T14:41:49;36.90;;;22.73;;
9324;SDS011;4701;51.566;6.776;2022-11-20T14:43:55;35.47;;;23.60;;
9324;SDS011;4701;51.566;6.776;2022-11-20T14:45:59;40.23;;;24.03;;
9324;SDS011;4701;51.566;6.776;2022-11-20T14:48:08;40.07;;;25.80;;
9324;SDS011;4701;51.566;6.776;2022-11-20T14:50:12;40.40;;;24.67;;
9324;SDS011;4701;51.566;6.776;2022-11-20T14:52:18;39.83;;;23.80;;
9324;SDS011;4701;51.566;6.776;2022-11-20T14:54:21;37.30;;;25.77;;
9324;SDS011;4701;51.566;6.776;2022-11-20T14:56:23;38.13;;;24.30;;
9324;SDS011;4701;51.566;6.776;2022-11-20T14:58:26;37.40;;;24.23;;
9324;SDS011;4701;51.566;6.776;2022-11-20T15:00:30;39.80;;;24.23;;
9324;SDS011;4701;51.566;6.776;2022-11-20T15:02:32;42.37;;;24.90;;
9324;SDS011;4701;51.566;6.776;2022-11-20T15:04:45;47.17;;;26.20;;
9324;SDS011;4701;51.566;6.776;2022-11-20T15:06:49;39.20;;;23.83;;
9324;SDS011;4701;51.566;6.776;2022-11-20T15:08:52;39.70;;;25.57;;
9324;SDS011;4701;51.566;6.776;2022-11-20T15:10:54;45.23;;;27.97;;
9324;SDS011;4701;51.566;6.776;2022-11-20T15:12:58;43.07;;;26.17;;
9324;SDS011;4701;51.566;6.776;2022-11-20T15:15:03;42.43;;;26.23;;
9324;SDS011;4701;51.566;6.776;2022-11-20T15:17:08;49.23;;;29.67;;
9324;SDS011;4701;51.566;6.776;2022-11-20T15:19:16;46.13;;;29.37;;
9324;SDS011;4701;51.566;6.776;2022-11-20T15:21:21;47.00;;;26.27;;
9324;SDS011;4701;51.566;6.776;2022-11-20T15:23:23;43.07;;;26.00;;
9324;SDS011;4701;51.566;6.776;2022-11-20T15:25:32;56.87;;;34.40;;
9324;SDS011;4701;51.566;6.776;2022-11-20T15:27:33;47.60;;;28.07;;
9324;SDS011;4701;51.566;6.776;2022-11-20T15:29:37;44.67;;;26.73;;
9324;SDS011;4701;51.566;6.776;2022-11-20T15:31:38;42.17;;;25.20;;
9324;SDS011;4701;51.566;6.776;2022-11-20T15:33:44;44.67;;;27.97;;
9324;SDS011;4701;51.566;6.776;2022-11-20T15:35:46;45.90;;;27.70;;
9324;SDS011;4701;51.566;6.776;2022-11-20T15:37:49;43.23;;;27.03;;
9324;SDS011;4701;51.566;6.776;2022-11-20T15:39:51;103.67;;;71.57;;
9324;SDS011;4701;51.566;6.776;2022-11-20T15:41:52;67.03;;;42.57;;
9324;SDS011;4701;51.566;6.776;2022-11-20T15:43:54;47.53;;;30.97;;
9324;SDS011;4701;51.566;6.776;2022-11-20T15:45:56;48.63;;;29.93;;
9324;SDS011;4701;51.566;6.776;2022-11-20T15:48:01;50.97;;;30.00;;
9324;SDS011;4701;51.566;6.776;2022-11-20T15:50:03;46.90;;;26.83;;
9324;SDS011;4701;51.566;6.776;2022-11-20T15:52:10;43.70;;;24.90;;
9324;SDS011;4701;51.566;6.776;2022-11-20T15:54:14;46.77;;;27.00;;
9324;SDS011;4701;51.566;6.776;2022-11-20T15:56:17;40.13;;;24.17;;
9324;SDS011;4701;51.566;6.776;2022-11-20T15:58:19;42.20;;;25.03;;
9324;SDS011;4701;51.566;6.776;2022-11-20T16:00:22;40.07;;;26.37;;
9324;SDS011;4701;51.566;6.776;2022-11-20T16:02:24;43.37;;;25.70;;
9324;SDS011;4701;51.566;6.776;2022-11-20T16:04:26;45.60;;;26.97;;
9324;SDS011;4701;51.566;6.776;2022-11-20T16:06:27;45.10;;;26.97;;
9324;SDS011;4701;51.566;6.776;2022-11-20T16:08:29;42.60;;;26.80;;
9324;SDS011;4701;51.566;6.776;2022-11-20T16:10:32;44.50;;;27.37;;
9324;SDS011;4701;51.566;6.776;2022-11-20T16:12:33;40.87;;;26.90;;
9324;SDS011;4701;51.566;6.776;2022-11-20T16:14:53;39.83;;;26.20;;
9324;SDS011;4701;51.566;6.776;2022-11-20T16:17:12;48.73;;;29.17;;
9324;SDS011;4701;51.566;6.776;2022-11-20T16:19:14;44.00;;;26.97;;
9324;SDS011;4701;51.566;6.776;2022-11-20T16:21:15;44.47;;;27.03;;
9324;SDS011;4701;51.566;6.776;2022-11-20T16:23:17;49.33;;;27.50;;
9324;SDS011;4701;51.566;6.776;2022-11-20T16:25:20;47.37;;;28.40;;
9324;SDS011;4701;51.566;6.776;2022-11-20T16:27:23;45.67;;;27.17;;
9324;SDS011;4701;51.566;6.776;2022-11-20T16:29:25;46.63;;;27.93;;
9324;SDS011;4701;51.566;6.776;2022-11-20T16:31:26;42.80;;;25.63;;
9324;SDS011;4701;51.566;6.776;2022-11-20T16:33:28;44.80;;;26.73;;
9324;SDS011;4701;51.566;6.776;2022-11-20T16:35:30;47.50;;;28.60;;
9324;SDS011;4701;51.566;6.776;2022-11-20T16:37:32;46.73;;;26.70;;
9324;SDS011;4701;51.566;6.776;2022-11-20T16:39:33;47.13;;;27.30;;
9324;SDS011;4701;51.566;6.776;2022-11-20T16:41:35;48.03;;;28.30;;
9324;SDS011;4701;51.566;6.776;2022-11-20T16:43:38;49.47;;;28.10;;
9324;SDS011;4701;51.566;6.776;2022-11-20T16:45:45;46.13;;;27.87;;
9324;SDS011;4701;51.566;6.776;2022-11-20T16:47:47;52.43;;;30.33;;
9324;SDS011;4701;51.566;6.776;2022-11-20T16:49:48;55.17;;;30.33;;
9324;SDS011;4701;51.566;6.776;2022-11-20T16:51:50;50.10;;;30.27;;
9324;SDS011;4701;51.566;6.776;2022-11-20T16:53:52;51.93;;;30.43;;
9324;SDS011;4701;51.566;6.776;2022-11-20T16:55:55;50.17;;;30.70;;
9324;SDS011;4701;51.566;6.776;2022-11-20T16:57:56;49.40;;;29.27;;
9324;SDS011;4701;51.566;6.776;2022-11-20T16:59:59;59.13;;;31.23;;
9324;SDS011;4701;51.566;6.776;2022-11-20T17:02:01;51.97;;;29.43;;
9324;SDS011;4701;51.566;6.776;2022-11-20T17:04:04;68.20;;;41.80;;
9324;SDS011;4701;51.566;6.776;2022-11-20T17:06:10;57.17;;;35.20;;
9324;SDS011;4701;51.566;6.776;2022-11-20T17:08:12;52.80;;;29.53;;
9324;SDS011;4701;51.566;6.776;2022-11-20T17:10:14;47.80;;;26.77;;
9324;SDS011;4701;51.566;6.776;2022-11-20T17:12:16;57.37;;;31.50;;
9324;SDS011;4701;51.566;6.776;2022-11-20T17:14:17;60.67;;;31.37;;
9324;SDS011;4701;51.566;6.776;2022-11-20T17:16:21;58.17;;;30.40;;
9324;SDS011;4701;51.566;6.776;2022-11-20T17:18:24;48.77;;;26.83;;
9324;SDS011;4701;51.566;6.776;2022-11-20T17:20:28;50.87;;;29.77;;
9324;SDS011;4701;51.566;6.776;2022-11-20T17:22:30;50.27;;;29.20;;
9324;SDS011;4701;51.566;6.776;2022-11-20T17:24:32;54.53;;;29.30;;
9324;SDS011;4701;51.566;6.776;2022-11-20T17:26:34;45.63;;;27.63;;
9324;SDS011;4701;51.566;6.776;2022-11-20T17:28:37;51.20;;;30.37;;
9324;SDS011;4701;51.566;6.776;2022-11-20T17:30:38;51.47;;;27.83;;
9324;SDS011;4701;51.566;6.776;2022-11-20T17:32:41;53.90;;;28.93;;
9324;SDS011;4701;51.566;6.776;2022-11-20T17:34:46;53.60;;;27.67;;
9324;SDS011;4701;51.566;6.776;2022-11-20T17:36:47;49.47;;;28.67;;
9324;SDS011;4701;51.566;6.776;2022-11-20T17:38:49;51.40;;;28.97;;
9324;SDS011;4701;51.566;6.776;2022-11-20T17:40:51;54.10;;;28.57;;
9324;SDS011;4701;51.566;6.776;2022-11-20T17:42:52;54.73;;;31.37;;
9324;SDS011;4701;51.566;6.776;2022-11-20T17:44:54;60.53;;;30.73;;
9324;SDS011;4701;51.566;6.776;2022-11-20T17:46:58;53.47;;;28.33;;
9324;SDS011;4701;51.566;6.776;2022-11-20T17:49:02;50.40;;;28.50;;
9324;SDS011;4701;51.566;6.776;2022-11-20T17:51:05;47.57;;;28.70;;
9324;SDS011;4701;51.566;6.776;2022-11-20T17:53:07;48.67;;;28.10;;
9324;SDS011;4701;51.566;6.776;2022-11-20T17:55:09;48.77;;;28.93;;
9324;SDS011;4701;51.566;6.776;2022-11-20T17:57:10;47.43;;;29.33;;
9324;SDS011;4701;51.566;6.776;2022-11-20T17:59:29;52.53;;;29.03;;
9324;SDS011;4701;51.566;6.776;2022-11-20T18:01:31;55.73;;;30.07;;
9324;SDS011;4701;51.566;6.776;2022-11-20T18:03:33;59.47;;;31.73;;
9324;SDS011;4701;51.566;6.776;2022-11-20T18:05:36;65.97;;;33.20;;
9324;SDS011;4701;51.566;6.776;2022-11-20T18:07:37;51.67;;;28.67;;
9324;SDS011;4701;51.566;6.776;2022-11-20T18:09:39;52.27;;;30.73;;
9324;SDS011;4701;51.566;6.776;2022-11-20T18:11:41;50.97;;;28.57;;
9324;SDS011;4701;51.566;6.776;2022-11-20T18:13:43;60.47;;;32.60;;
9324;SDS011;4701;51.566;6.776;2022-11-20T18:16:05;52.07;;;30.17;;
9324;SDS011;4701;51.566;6.776;2022-11-20T18:18:07;54.80;;;30.53;;
9324;SDS011;4701;51.566;6.776;2022-11-20T18:20:09;65.37;;;32.23;;
9324;SDS011;4701;51.566;6.776;2022-11-20T18:22:12;58.77;;;32.60;;
9324;SDS011;4701;51.566;6.776;2022-11-20T18:24:15;54.97;;;31.63;;
9324;SDS011;4701;51.566;6.776;2022-11-20T18:26:17;55.47;;;32.83;;
9324;SDS011;4701;51.566;6.776;2022-11-20T18:28:19;54.17;;;31.17;;
9324;SDS011;4701;51.566;6.776;2022-11-20T18:30:21;58.40;;;31.43;;
9324;SDS011;4701;51.566;6.776;2022-11-20T18:32:22;53.33;;;30.00;;
9324;SDS011;4701;51.566;6.776;2022-11-20T18:34:24;61.10;;;30.43;;
9324;SDS011;4701;51.566;6.776;2022-11-20T18:36:27;53.27;;;30.80;;
9324;SDS011;4701;51.566;6.776;2022-11-20T18:38:31;56.57;;;31.53;;
9324;SDS011;4701;51.566;6.776;2022-11-20T18:40:33;56.33;;;31.53;;
9324;SDS011;4701;51.566;6.776;2022-11-20T18:42:35;61.77;;;32.03;;
9324;SDS011;4701;51.566;6.776;2022-11-20T18:44:54;52.87;;;30.17;;
9324;SDS011;4701;51.566;6.776;2022-11-20T18:46:55;54.13;;;29.10;;
9324;SDS011;4701;51.566;6.776;2022-11-20T18:48:57;47.50;;;29.17;;
9324;SDS011;4701;51.566;6.776;2022-11-20T18:51:03;50.50;;;30.97;;
9324;SDS011;4701;51.566;6.776;2022-11-20T18:53:05;87.17;;;53.00;;
9324;SDS011;4701;51.566;6.776;2022-11-20T18:55:09;92.27;;;56.37;;
9324;SDS011;4701;51.566;6.776;2022-11-20T18:57:11;67.47;;;39.80;;
9324;SDS011;4701;51.566;6.776;2022-11-20T18:59:14;50.80;;;28.87;;
9324;SDS011;4701;51.566;6.776;2022-11-20T19:01:18;50.43;;;28.97;;
9324;SDS011;4701;51.566;6.776;2022-11-20T19:03:19;58.40;;;30.07;;
9324;SDS011;4701;51.566;6.776;2022-11-20T19:05:21;53.23;;;29.90;;
9324;SDS011;4701;51.566;6.776;2022-11-20T19:07:23;52.20;;;28.60;;
9324;SDS011;4701;51.566;6.776;2022-11-20T19:09:24;45.43;;;26.50;;
9324;SDS011;4701;51.566;6.776;2022-11-20T19:11:27;50.77;;;27.90;;
9324;SDS011;4701;51.566;6.776;2022-11-20T19:13:31;48.77;;;28.93;;
9324;SDS011;4701;51.566;6.776;2022-11-20T19:15:32;45.53;;;27.20;;
9324;SDS011;4701;51.566;6.776;2022-11-20T19:17:36;52.17;;;30.03;;
9324;SDS011;4701;51.566;6.776;2022-11-20T19:19:38;48.00;;;27.70;;
9324;SDS011;4701;51.566;6.776;2022-11-20T19:21:40;50.20;;;28.20;;
9324;SDS011;4701;51.566;6.776;2022-11-20T19:23:42;52.83;;;28.27;;
9324;SDS011;4701;51.566;6.776;2022-11-20T19:25:47;55.97;;;28.67;;
9324;SDS011;4701;51.566;6.776;2022-11-20T19:27:50;61.63;;;30.73;;
9324;SDS011;4701;51.566;6.776;2022-11-20T19:29:52;51.53;;;28.93;;
9324;SDS011;4701;51.566;6.776;2022-11-20T19:31:57;57.60;;;29.30;;
9324;SDS011;4701;51.566;6.776;2022-11-20T19:34:00;57.30;;;30.70;;
9324;SDS011;4701;51.566;6.776;2022-11-20T19:36:07;54.90;;;29.90;;
9324;SDS011;4701;51.566;6.776;2022-11-20T19:38:09;48.20;;;27.10;;
9324;SDS011;4701;51.566;6.776;2022-11-20T19:40:11;50.37;;;28.90;;
9324;SDS011;4701;51.566;6.776;2022-11-20T19:42:13;51.60;;;28.13;;
9324;SDS011;4701;51.566;6.776;2022-11-20T19:44:16;46.50;;;26.97;;
9324;SDS011;4701;51.566;6.776;2022-11-20T19:46:18;52.90;;;27.60;;
9324;SDS011;4701;51.566;6.776;2022-11-20T19:48:20;44.73;;;26.53;;
9324;SDS011;4701;51.566;6.776;2022-11-20T19:50:22;55.27;;;29.63;;
9324;SDS011;4701;51.566;6.776;2022-11-20T19:52:23;51.53;;;28.77;;
9324;SDS011;4701;51.566;6.776;2022-11-20T19:54:25;54.67;;;30.53;;
9324;SDS011;4701;51.566;6.776;2022-11-20T19:56:27;52.83;;;29.40;;
9324;SDS011;4701;51.566;6.776;2022-11-20T19:58:30;42.37;;;25.70;;
9324;SDS011;4701;51.566;6.776;2022-11-20T20:00:33;50.53;;;28.30;;
9324;SDS011;4701;51.566;6.776;2022-11-20T20:02:35;50.43;;;29.27;;
9324;SDS011;4701;51.566;6.776;2022-11-20T20:04:36;49.27;;;26.90;;
9324;SDS011;4701;51.566;6.776;2022-11-20T20:06:38;45.33;;;27.77;;
9324;SDS011;4701;51.566;6.776;2022-11-20T20:08:40;51.70;;;28.40;;
9324;SDS011;4701;51.566;6.776;2022-11-20T20:10:42;54.30;;;30.53;;
9324;SDS011;4701;51.566;6.776;2022-11-20T20:12:44;51.43;;;30.80;;
9324;SDS011;4701;51.566;6.776;2022-11-20T20:14:45;48.20;;;28.03;;
9324;SDS011;4701;51.566;6.776;2022-11-20T20:16:48;51.57;;;30.53;;
9324;SDS011;4701;51.566;6.776;2022-11-20T20:18:52;55.73;;;31.10;;
9324;SDS011;4701;51.566;6.776;2022-11-20T20:20:56;47.73;;;27.67;;
9324;SDS011;4701;51.566;6.776;2022-11-20T20:23:02;50.43;;;32.20;;
9324;SDS011;4701;51.566;6.776;2022-11-20T20:25:06;57.37;;;35.47;;
9324;SDS011;4701;51.566;6.776;2022-11-20T20:27:08;59.77;;;35.20;;
9324;SDS011;4701;51.566;6.776;2022-11-20T20:29:09;81.10;;;37.03;;
9324;SDS011;4701;51.566;6.776;2022-11-20T20:31:12;65.77;;;33.80;;
9324;SDS011;4701;51.566;6.776;2022-11-20T20:33:17;57.27;;;34.93;;
9324;SDS011;4701;51.566;6.776;2022-11-20T20:35:18;56.33;;;36.13;;
9324;SDS011;4701;51.566;6.776;2022-11-20T20:37:20;60.27;;;36.63;;
9324;SDS011;4701;51.566;6.776;2022-11-20T20:39:22;60.63;;;37.07;;
9324;SDS011;4701;51.566;6.776;2022-11-20T20:41:24;53.77;;;36.37;;
9324;SDS011;4701;51.566;6.776;2022-11-20T20:43:26;56.47;;;36.90;;
9324;SDS011;4701;51.566;6.776;2022-11-20T20:45:27;60.33;;;37.83;;
9324;SDS011;4701;51.566;6.776;2022-11-20T20:47:28;60.97;;;36.80;;
9324;SDS011;4701;51.566;6.776;2022-11-20T20:49:33;57.10;;;36.37;;
9324;SDS011;4701;51.566;6.776;2022-11-20T20:51:34;66.07;;;40.57;;
9324;SDS011;4701;51.566;6.776;2022-11-20T20:53:36;58.87;;;36.97;;
9324;SDS011;4701;51.566;6.776;2022-11-20T20:55:38;61.40;;;38.23;;
9324;SDS011;4701;51.566;6.776;2022-11-20T20:57:39;57.93;;;36.73;;
9324;SDS011;4701;51.566;6.776;2022-11-20T20:59:41;62.53;;;37.37;;
9324;SDS011;4701;51.566;6.776;2022-11-20T21:01:43;57.77;;;36.43;;
9324;SDS011;4701;51.566;6.776;2022-11-20T21:03:44;62.17;;;37.97;;
9324;SDS011;4701;51.566;6.776;2022-11-20T21:05:53;57.53;;;36.63;;
9324;SDS011;4701;51.566;6.776;2022-11-20T21:07:56;65.93;;;37.83;;
9324;SDS011;4701;51.566;6.776;2022-11-20T21:10:15;67.53;;;38.40;;
9324;SDS011;4701;51.566;6.776;2022-11-20T21:12:17;65.33;;;38.47;;
9324;SDS011;4701;51.566;6.776;2022-11-20T21:14:18;70.73;;;40.03;;
9324;SDS011;4701;51.566;6.776;2022-11-20T21:16:20;69.20;;;37.53;;
9324;SDS011;4701;51.566;6.776;2022-11-20T21:18:22;73.47;;;38.57;;
9324;SDS011;4701;51.566;6.776;2022-11-20T21:20:24;72.50;;;38.87;;
9324;SDS011;4701;51.566;6.776;2022-11-20T21:22:45;72.00;;;40.60;;
9324;SDS011;4701;51.566;6.776;2022-11-20T21:24:46;68.00;;;38.13;;
9324;SDS011;4701;51.566;6.776;2022-11-20T21:26:48;74.20;;;40.23;;
9324;SDS011;4701;51.566;6.776;2022-11-20T21:28:51;71.53;;;39.53;;
